sensor_id;sensor_type;location;lat;lon;timestamp;temperature;humidity
40257;DHT22;25977;45.462;9.210;2023-05-16T00:01:49;19.50;81.50
40257;DHT22;25977;45.462;9.210;2023-05-16T00:04:14;19.50;81.40
40257;DHT22;25977;45.462;9.210;2023-05-16T00:06:40;19.50;81.40
40257;DHT22;25977;45.462;9.210;2023-05-16T00:09:06;19.50;81.50
40257;DHT22;25977;45.462;9.210;2023-05-16T00:11:32;19.40;81.40
40257;DHT22;25977;45.462;9.210;2023-05-16T00:13:57;19.50;81.60
40257;DHT22;25977;45.462;9.210;2023-05-16T00:16:23;19.50;81.70
40257;DHT22;25977;45.462;9.210;2023-05-16T00:18:50;19.40;81.70
40257;DHT22;25977;45.462;9.210;2023-05-16T00:21:17;19.30;82.30
40257;DHT22;25977;45.462;9.210;2023-05-16T00:23:42;19.30;81.90
40257;DHT22;25977;45.462;9.210;2023-05-16T00:26:08;19.40;82.00
40257;DHT22;25977;45.462;9.210;2023-05-16T00:28:34;19.30;82.10
40257;DHT22;25977;45.462;9.210;2023-05-16T00:31:00;19.30;82.10
40257;DHT22;25977;45.462;9.210;2023-05-16T00:33:26;19.30;82.10
40257;DHT22;25977;45.462;9.210;2023-05-16T00:35:51;19.30;82.20
40257;DHT22;25977;45.462;9.210;2023-05-16T00:38:18;19.30;82.20
40257;DHT22;25977;45.462;9.210;2023-05-16T00:40:44;19.20;82.20
40257;DHT22;25977;45.462;9.210;2023-05-16T00:43:11;19.30;82.30
40257;DHT22;25977;45.462;9.210;2023-05-16T00:45:37;19.30;82.40
40257;DHT22;25977;45.462;9.210;2023-05-16T00:48:02;19.20;82.40
40257;DHT22;25977;45.462;9.210;2023-05-16T00:50:29;19.20;82.50
40257;DHT22;25977;45.462;9.210;2023-05-16T00:52:55;19.20;82.50
40257;DHT22;25977;45.462;9.210;2023-05-16T00:55:20;19.20;82.60
40257;DHT22;25977;45.462;9.210;2023-05-16T00:57:46;19.20;82.60
40257;DHT22;25977;45.462;9.210;2023-05-16T01:00:12;19.10;82.60
40257;DHT22;25977;45.462;9.210;2023-05-16T01:02:40;19.20;82.60
40257;DHT22;25977;45.462;9.210;2023-05-16T01:05:06;19.20;82.70
40257;DHT22;25977;45.462;9.210;2023-05-16T01:07:35;19.20;82.80
40257;DHT22;25977;45.462;9.210;2023-05-16T01:10:02;19.20;82.80
40257;DHT22;25977;45.462;9.210;2023-05-16T01:12:47;19.20;82.80
40257;DHT22;25977;45.462;9.210;2023-05-16T01:15:25;19.20;82.90
40257;DHT22;25977;45.462;9.210;2023-05-16T01:19:02;19.20;82.90
40257;DHT22;25977;45.462;9.210;2023-05-16T01:21:23;19.20;83.00
40257;DHT22;25977;45.462;9.210;2023-05-16T01:23:59;19.20;83.10
40257;DHT22;25977;45.462;9.210;2023-05-16T01:26:28;19.10;83.10
40257;DHT22;25977;45.462;9.210;2023-05-16T01:28:54;19.10;83.10
40257;DHT22;25977;45.462;9.210;2023-05-16T01:31:21;19.10;83.20
40257;DHT22;25977;45.462;9.210;2023-05-16T01:33:47;19.10;83.20
40257;DHT22;25977;45.462;9.210;2023-05-16T01:36:19;19.10;83.40
40257;DHT22;25977;45.462;9.210;2023-05-16T01:41:20;19.00;83.50
40257;DHT22;25977;45.462;9.210;2023-05-16T01:43:50;19.00;83.60
40257;DHT22;25977;45.462;9.210;2023-05-16T01:46:43;19.00;83.70
40257;DHT22;25977;45.462;9.210;2023-05-16T01:51:42;19.00;83.70
40257;DHT22;25977;45.462;9.210;2023-05-16T01:54:11;19.00;83.70
40257;DHT22;25977;45.462;9.210;2023-05-16T01:56:38;19.00;83.50
40257;DHT22;25977;45.462;9.210;2023-05-16T01:59:05;19.00;83.50
40257;DHT22;25977;45.462;9.210;2023-05-16T02:01:32;19.00;83.60
40257;DHT22;25977;45.462;9.210;2023-05-16T02:03:58;18.90;83.70
40257;DHT22;25977;45.462;9.210;2023-05-16T02:06:24;18.90;83.70
40257;DHT22;25977;45.462;9.210;2023-05-16T02:08:53;18.90;83.80
40257;DHT22;25977;45.462;9.210;2023-05-16T02:11:19;18.90;83.80
40257;DHT22;25977;45.462;9.210;2023-05-16T02:13:45;18.90;83.80
40257;DHT22;25977;45.462;9.210;2023-05-16T02:16:11;18.90;83.70
40257;DHT22;25977;45.462;9.210;2023-05-16T02:18:37;18.80;83.50
40257;DHT22;25977;45.462;9.210;2023-05-16T02:21:03;18.90;83.60
40257;DHT22;25977;45.462;9.210;2023-05-16T02:23:29;18.90;83.60
40257;DHT22;25977;45.462;9.210;2023-05-16T02:25:55;18.80;83.50
40257;DHT22;25977;45.462;9.210;2023-05-16T02:28:22;18.80;83.70
40257;DHT22;25977;45.462;9.210;2023-05-16T02:30:58;18.80;83.70
40257;DHT22;25977;45.462;9.210;2023-05-16T02:33:27;18.80;83.80
40257;DHT22;25977;45.462;9.210;2023-05-16T02:35:53;18.80;83.80
40257;DHT22;25977;45.462;9.210;2023-05-16T02:38:20;18.80;83.60
40257;DHT22;25977;45.462;9.210;2023-05-16T02:40:46;18.80;83.70
40257;DHT22;25977;45.462;9.210;2023-05-16T02:43:12;18.80;83.70
40257;DHT22;25977;45.462;9.210;2023-05-16T02:45:38;18.80;83.90
40257;DHT22;25977;45.462;9.210;2023-05-16T02:48:04;18.80;83.90
40257;DHT22;25977;45.462;9.210;2023-05-16T02:50:29;18.70;83.80
40257;DHT22;25977;45.462;9.210;2023-05-16T02:52:56;18.70;83.70
40257;DHT22;25977;45.462;9.210;2023-05-16T02:55:24;18.80;83.80
40257;DHT22;25977;45.462;9.210;2023-05-16T02:57:51;18.80;83.90
40257;DHT22;25977;45.462;9.210;2023-05-16T03:00:17;18.80;83.80
40257;DHT22;25977;45.462;9.210;2023-05-16T03:02:43;18.80;83.90
40257;DHT22;25977;45.462;9.210;2023-05-16T03:05:09;18.70;83.90
40257;DHT22;25977;45.462;9.210;2023-05-16T03:07:36;18.70;83.90
40257;DHT22;25977;45.462;9.210;2023-05-16T03:10:04;18.70;83.90
40257;DHT22;25977;45.462;9.210;2023-05-16T03:12:30;18.70;84.10
40257;DHT22;25977;45.462;9.210;2023-05-16T03:14:56;18.70;84.10
40257;DHT22;25977;45.462;9.210;2023-05-16T03:17:21;18.60;84.20
40257;DHT22;25977;45.462;9.210;2023-05-16T03:19:47;18.70;84.20
40257;DHT22;25977;45.462;9.210;2023-05-16T03:22:13;18.60;84.10
40257;DHT22;25977;45.462;9.210;2023-05-16T03:24:41;18.60;84.30
40257;DHT22;25977;45.462;9.210;2023-05-16T03:27:10;18.60;84.10
40257;DHT22;25977;45.462;9.210;2023-05-16T03:29:36;18.60;84.10
40257;DHT22;25977;45.462;9.210;2023-05-16T03:32:02;18.70;84.20
40257;DHT22;25977;45.462;9.210;2023-05-16T03:34:28;18.60;84.00
40257;DHT22;25977;45.462;9.210;2023-05-16T03:36:53;18.60;84.10
40257;DHT22;25977;45.462;9.210;2023-05-16T03:39:19;18.50;84.20
40257;DHT22;25977;45.462;9.210;2023-05-16T03:41:45;18.50;84.40
40257;DHT22;25977;45.462;9.210;2023-05-16T03:44:10;18.40;84.40
40257;DHT22;25977;45.462;9.210;2023-05-16T03:46:37;18.50;84.60
40257;DHT22;25977;45.462;9.210;2023-05-16T03:49:02;18.50;84.60
40257;DHT22;25977;45.462;9.210;2023-05-16T03:51:28;18.40;84.60
40257;DHT22;25977;45.462;9.210;2023-05-16T03:53:54;18.50;84.60
40257;DHT22;25977;45.462;9.210;2023-05-16T03:56:20;18.40;84.50
40257;DHT22;25977;45.462;9.210;2023-05-16T03:58:46;18.40;84.60
40257;DHT22;25977;45.462;9.210;2023-05-16T04:01:13;18.40;84.60
40257;DHT22;25977;45.462;9.210;2023-05-16T04:03:38;18.50;84.70
40257;DHT22;25977;45.462;9.210;2023-05-16T04:06:05;18.40;84.70
40257;DHT22;25977;45.462;9.210;2023-05-16T04:08:31;18.40;84.60
40257;DHT22;25977;45.462;9.210;2023-05-16T04:10:56;18.40;84.50
40257;DHT22;25977;45.462;9.210;2023-05-16T04:13:22;18.50;84.60
40257;DHT22;25977;45.462;9.210;2023-05-16T04:15:48;18.50;84.50
40257;DHT22;25977;45.462;9.210;2023-05-16T04:18:13;18.40;84.50
40257;DHT22;25977;45.462;9.210;2023-05-16T04:20:41;18.40;84.60
40257;DHT22;25977;45.462;9.210;2023-05-16T04:23:07;18.40;84.60
40257;DHT22;25977;45.462;9.210;2023-05-16T04:25:35;18.40;84.50
40257;DHT22;25977;45.462;9.210;2023-05-16T04:28:01;18.50;84.50
40257;DHT22;25977;45.462;9.210;2023-05-16T04:30:26;18.40;84.60
40257;DHT22;25977;45.462;9.210;2023-05-16T04:32:52;18.40;85.10
40257;DHT22;25977;45.462;9.210;2023-05-16T04:35:18;18.40;85.50
40257;DHT22;25977;45.462;9.210;2023-05-16T04:37:43;18.40;85.60
40257;DHT22;25977;45.462;9.210;2023-05-16T04:40:10;18.40;85.90
40257;DHT22;25977;45.462;9.210;2023-05-16T04:42:37;18.40;86.00
40257;DHT22;25977;45.462;9.210;2023-05-16T04:45:03;18.40;86.20
40257;DHT22;25977;45.462;9.210;2023-05-16T04:47:31;18.30;86.20
40257;DHT22;25977;45.462;9.210;2023-05-16T04:49:56;18.30;86.90
40257;DHT22;25977;45.462;9.210;2023-05-16T04:52:22;18.30;86.50
40257;DHT22;25977;45.462;9.210;2023-05-16T04:54:50;18.30;86.60
40257;DHT22;25977;45.462;9.210;2023-05-16T04:57:16;18.30;86.70
40257;DHT22;25977;45.462;9.210;2023-05-16T04:59:42;18.30;86.70
40257;DHT22;25977;45.462;9.210;2023-05-16T05:02:08;18.40;86.70
40257;DHT22;25977;45.462;9.210;2023-05-16T05:04:34;18.40;86.80
40257;DHT22;25977;45.462;9.210;2023-05-16T05:07:00;18.40;86.80
40257;DHT22;25977;45.462;9.210;2023-05-16T05:09:26;18.40;87.00
40257;DHT22;25977;45.462;9.210;2023-05-16T05:11:51;18.30;87.10
40257;DHT22;25977;45.462;9.210;2023-05-16T05:14:17;18.30;87.20
40257;DHT22;25977;45.462;9.210;2023-05-16T05:16:43;18.30;87.20
40257;DHT22;25977;45.462;9.210;2023-05-16T05:19:08;18.40;87.20
40257;DHT22;25977;45.462;9.210;2023-05-16T05:21:34;18.40;87.20
40257;DHT22;25977;45.462;9.210;2023-05-16T05:24:00;18.40;87.20
40257;DHT22;25977;45.462;9.210;2023-05-16T05:26:26;18.40;87.10
40257;DHT22;25977;45.462;9.210;2023-05-16T05:28:53;18.50;87.00
40257;DHT22;25977;45.462;9.210;2023-05-16T05:31:19;18.60;86.90
40257;DHT22;25977;45.462;9.210;2023-05-16T05:33:44;18.70;86.70
40257;DHT22;25977;45.462;9.210;2023-05-16T05:36:10;18.70;86.40
40257;DHT22;25977;45.462;9.210;2023-05-16T05:38:36;18.90;86.10
40257;DHT22;25977;45.462;9.210;2023-05-16T05:41:03;19.10;85.80
40257;DHT22;25977;45.462;9.210;2023-05-16T05:43:28;19.30;85.30
40257;DHT22;25977;45.462;9.210;2023-05-16T05:45:54;19.50;84.50
40257;DHT22;25977;45.462;9.210;2023-05-16T05:48:20;19.80;83.90
40257;DHT22;25977;45.462;9.210;2023-05-16T05:50:46;20.10;83.20
40257;DHT22;25977;45.462;9.210;2023-05-16T05:53:12;20.30;82.60
40257;DHT22;25977;45.462;9.210;2023-05-16T05:55:38;20.30;82.00
40257;DHT22;25977;45.462;9.210;2023-05-16T05:58:06;20.30;81.90
40257;DHT22;25977;45.462;9.210;2023-05-16T06:00:31;20.20;82.00
40257;DHT22;25977;45.462;9.210;2023-05-16T06:02:57;20.00;82.40
40257;DHT22;25977;45.462;9.210;2023-05-16T06:05:23;19.90;82.50
40257;DHT22;25977;45.462;9.210;2023-05-16T06:07:48;19.80;82.80
40257;DHT22;25977;45.462;9.210;2023-05-16T06:10:14;19.60;83.00
40257;DHT22;25977;45.462;9.210;2023-05-16T06:12:40;19.40;83.70
40257;DHT22;25977;45.462;9.210;2023-05-16T06:15:06;19.30;83.90
40257;DHT22;25977;45.462;9.210;2023-05-16T06:17:32;19.10;84.40
40257;DHT22;25977;45.462;9.210;2023-05-16T06:19:57;19.00;84.70
40257;DHT22;25977;45.462;9.210;2023-05-16T06:22:23;19.00;84.70
40257;DHT22;25977;45.462;9.210;2023-05-16T06:24:49;18.90;85.00
40257;DHT22;25977;45.462;9.210;2023-05-16T06:27:14;18.70;86.00
40257;DHT22;25977;45.462;9.210;2023-05-16T06:29:40;18.70;86.20
40257;DHT22;25977;45.462;9.210;2023-05-16T06:32:06;18.60;86.70
40257;DHT22;25977;45.462;9.210;2023-05-16T06:34:31;18.70;86.60
40257;DHT22;25977;45.462;9.210;2023-05-16T06:36:57;18.80;86.50
40257;DHT22;25977;45.462;9.210;2023-05-16T06:39:24;18.80;86.40
40257;DHT22;25977;45.462;9.210;2023-05-16T06:41:50;18.90;85.90
40257;DHT22;25977;45.462;9.210;2023-05-16T06:44:16;18.70;85.90
40257;DHT22;25977;45.462;9.210;2023-05-16T06:46:41;18.90;85.90
40257;DHT22;25977;45.462;9.210;2023-05-16T06:49:07;18.70;85.50
40257;DHT22;25977;45.462;9.210;2023-05-16T06:51:33;18.80;85.20
40257;DHT22;25977;45.462;9.210;2023-05-16T06:53:59;18.90;84.90
40257;DHT22;25977;45.462;9.210;2023-05-16T06:56:24;18.80;84.40
40257;DHT22;25977;45.462;9.210;2023-05-16T06:58:50;18.80;85.20
40257;DHT22;25977;45.462;9.210;2023-05-16T07:01:16;18.90;84.10
40257;DHT22;25977;45.462;9.210;2023-05-16T07:03:41;18.90;84.40
40257;DHT22;25977;45.462;9.210;2023-05-16T07:06:07;19.00;84.40
40257;DHT22;25977;45.462;9.210;2023-05-16T07:08:33;19.10;84.30
40257;DHT22;25977;45.462;9.210;2023-05-16T07:11:00;19.00;83.00
40257;DHT22;25977;45.462;9.210;2023-05-16T07:13:26;19.10;82.50
40257;DHT22;25977;45.462;9.210;2023-05-16T07:15:52;19.10;81.80
40257;DHT22;25977;45.462;9.210;2023-05-16T07:18:18;19.20;81.60
40257;DHT22;25977;45.462;9.210;2023-05-16T07:20:44;19.10;80.90
40257;DHT22;25977;45.462;9.210;2023-05-16T07:23:10;19.10;80.70
40257;DHT22;25977;45.462;9.210;2023-05-16T07:25:36;19.00;80.20
40257;DHT22;25977;45.462;9.210;2023-05-16T07:28:02;19.00;80.30
40257;DHT22;25977;45.462;9.210;2023-05-16T07:30:27;19.10;80.30
40257;DHT22;25977;45.462;9.210;2023-05-16T07:32:53;19.10;80.60
40257;DHT22;25977;45.462;9.210;2023-05-16T07:35:19;19.20;80.40
40257;DHT22;25977;45.462;9.210;2023-05-16T07:37:45;19.30;80.00
40257;DHT22;25977;45.462;9.210;2023-05-16T07:40:11;19.40;80.20
40257;DHT22;25977;45.462;9.210;2023-05-16T07:42:37;19.60;79.80
40257;DHT22;25977;45.462;9.210;2023-05-16T07:45:04;19.90;79.40
40257;DHT22;25977;45.462;9.210;2023-05-16T07:47:31;20.00;79.00
40257;DHT22;25977;45.462;9.210;2023-05-16T07:49:57;20.10;78.70
40257;DHT22;25977;45.462;9.210;2023-05-16T07:52:22;20.10;78.90
40257;DHT22;25977;45.462;9.210;2023-05-16T07:54:48;20.10;78.70
40257;DHT22;25977;45.462;9.210;2023-05-16T07:57:14;20.10;79.00
40257;DHT22;25977;45.462;9.210;2023-05-16T07:59:40;20.00;79.30
40257;DHT22;25977;45.462;9.210;2023-05-16T08:02:06;20.20;78.90
40257;DHT22;25977;45.462;9.210;2023-05-16T08:04:31;20.30;78.90
40257;DHT22;25977;45.462;9.210;2023-05-16T08:06:57;20.20;79.40
40257;DHT22;25977;45.462;9.210;2023-05-16T08:09:23;20.30;79.20
40257;DHT22;25977;45.462;9.210;2023-05-16T08:11:48;19.90;80.30
40257;DHT22;25977;45.462;9.210;2023-05-16T08:14:14;19.80;80.90
40257;DHT22;25977;45.462;9.210;2023-05-16T08:16:40;19.50;81.50
40257;DHT22;25977;45.462;9.210;2023-05-16T08:19:07;19.20;82.50
40257;DHT22;25977;45.462;9.210;2023-05-16T08:21:33;19.10;82.60
40257;DHT22;25977;45.462;9.210;2023-05-16T08:23:58;19.20;81.80
40257;DHT22;25977;45.462;9.210;2023-05-16T08:26:24;19.30;81.80
40257;DHT22;25977;45.462;9.210;2023-05-16T08:28:50;19.40;82.10
40257;DHT22;25977;45.462;9.210;2023-05-16T08:31:16;19.10;82.70
40257;DHT22;25977;45.462;9.210;2023-05-16T08:33:42;19.10;81.90
40257;DHT22;25977;45.462;9.210;2023-05-16T08:36:11;18.70;82.40
40257;DHT22;25977;45.462;9.210;2023-05-16T08:38:37;18.80;82.30
40257;DHT22;25977;45.462;9.210;2023-05-16T08:41:03;18.70;82.40
40257;DHT22;25977;45.462;9.210;2023-05-16T08:43:29;18.70;82.80
40257;DHT22;25977;45.462;9.210;2023-05-16T08:45:54;18.90;82.50
40257;DHT22;25977;45.462;9.210;2023-05-16T08:48:22;18.80;82.50
40257;DHT22;25977;45.462;9.210;2023-05-16T08:50:48;19.00;82.00
40257;DHT22;25977;45.462;9.210;2023-05-16T08:53:18;18.90;81.90
40257;DHT22;25977;45.462;9.210;2023-05-16T08:55:45;18.70;82.40
40257;DHT22;25977;45.462;9.210;2023-05-16T08:58:12;18.60;82.60
40257;DHT22;25977;45.462;9.210;2023-05-16T09:00:39;18.70;82.40
40257;DHT22;25977;45.462;9.210;2023-05-16T09:03:05;18.80;82.20
40257;DHT22;25977;45.462;9.210;2023-05-16T09:05:32;18.70;82.50
40257;DHT22;25977;45.462;9.210;2023-05-16T09:07:58;18.70;82.60
40257;DHT22;25977;45.462;9.210;2023-05-16T09:10:24;18.40;83.20
40257;DHT22;25977;45.462;9.210;2023-05-16T09:12:49;18.50;83.30
40257;DHT22;25977;45.462;9.210;2023-05-16T09:15:17;18.50;83.20
40257;DHT22;25977;45.462;9.210;2023-05-16T09:17:45;18.50;83.10
40257;DHT22;25977;45.462;9.210;2023-05-16T09:20:15;18.60;83.10
40257;DHT22;25977;45.462;9.210;2023-05-16T09:22:58;18.60;82.80
40257;DHT22;25977;45.462;9.210;2023-05-16T09:25:26;18.70;82.30
40257;DHT22;25977;45.462;9.210;2023-05-16T09:27:56;18.80;81.90
40257;DHT22;25977;45.462;9.210;2023-05-16T09:30:23;18.90;81.60
40257;DHT22;25977;45.462;9.210;2023-05-16T09:32:52;18.90;81.10
40257;DHT22;25977;45.462;9.210;2023-05-16T09:35:19;18.90;81.10
40257;DHT22;25977;45.462;9.210;2023-05-16T09:37:46;18.90;81.30
40257;DHT22;25977;45.462;9.210;2023-05-16T09:40:12;19.00;81.70
40257;DHT22;25977;45.462;9.210;2023-05-16T09:42:38;19.00;82.00
40257;DHT22;25977;45.462;9.210;2023-05-16T09:45:04;19.00;82.10
40257;DHT22;25977;45.462;9.210;2023-05-16T09:47:30;19.00;81.80
40257;DHT22;25977;45.462;9.210;2023-05-16T09:49:56;19.00;82.40
40257;DHT22;25977;45.462;9.210;2023-05-16T09:52:25;19.00;82.90
40257;DHT22;25977;45.462;9.210;2023-05-16T09:54:51;19.10;82.90
40257;DHT22;25977;45.462;9.210;2023-05-16T09:57:17;19.10;82.90
40257;DHT22;25977;45.462;9.210;2023-05-16T09:59:44;19.10;82.80
40257;DHT22;25977;45.462;9.210;2023-05-16T10:02:10;19.10;83.10
40257;DHT22;25977;45.462;9.210;2023-05-16T10:04:37;19.10;83.10
40257;DHT22;25977;45.462;9.210;2023-05-16T10:07:03;19.10;83.10
40257;DHT22;25977;45.462;9.210;2023-05-16T10:09:33;19.10;82.50
40257;DHT22;25977;45.462;9.210;2023-05-16T10:12:00;19.10;82.80
40257;DHT22;25977;45.462;9.210;2023-05-16T10:14:38;19.00;82.90
40257;DHT22;25977;45.462;9.210;2023-05-16T10:17:11;18.90;82.90
40257;DHT22;25977;45.462;9.210;2023-05-16T10:19:38;18.50;83.40
40257;DHT22;25977;45.462;9.210;2023-05-16T10:22:05;18.50;84.10
40257;DHT22;25977;45.462;9.210;2023-05-16T10:24:57;18.40;84.00
40257;DHT22;25977;45.462;9.210;2023-05-16T10:27:25;18.70;84.20
40257;DHT22;25977;45.462;9.210;2023-05-16T10:29:52;18.30;84.70
40257;DHT22;25977;45.462;9.210;2023-05-16T10:32:18;18.50;84.60
40257;DHT22;25977;45.462;9.210;2023-05-16T10:34:45;18.40;84.70
40257;DHT22;25977;45.462;9.210;2023-05-16T10:37:11;18.50;84.20
40257;DHT22;25977;45.462;9.210;2023-05-16T10:39:37;18.60;84.10
40257;DHT22;25977;45.462;9.210;2023-05-16T10:42:05;18.60;84.10
40257;DHT22;25977;45.462;9.210;2023-05-16T10:44:31;18.70;83.60
40257;DHT22;25977;45.462;9.210;2023-05-16T10:46:59;18.50;83.60
40257;DHT22;25977;45.462;9.210;2023-05-16T10:49:26;18.50;83.40
40257;DHT22;25977;45.462;9.210;2023-05-16T10:54:38;18.90;83.00
40257;DHT22;25977;45.462;9.210;2023-05-16T10:57:14;19.00;82.60
40257;DHT22;25977;45.462;9.210;2023-05-16T10:59:43;18.90;82.90
40257;DHT22;25977;45.462;9.210;2023-05-16T11:02:23;18.90;82.70
40257;DHT22;25977;45.462;9.210;2023-05-16T11:04:51;18.70;82.90
40257;DHT22;25977;45.462;9.210;2023-05-16T11:07:18;18.80;83.10
40257;DHT22;25977;45.462;9.210;2023-05-16T11:09:52;18.80;83.10
40257;DHT22;25977;45.462;9.210;2023-05-16T11:12:45;18.90;83.10
40257;DHT22;25977;45.462;9.210;2023-05-16T11:15:25;18.70;83.30
40257;DHT22;25977;45.462;9.210;2023-05-16T11:18:08;18.60;83.00
40257;DHT22;25977;45.462;9.210;2023-05-16T11:20:36;18.30;84.20
40257;DHT22;25977;45.462;9.210;2023-05-16T11:25:47;18.50;84.20
40257;DHT22;25977;45.462;9.210;2023-05-16T11:28:15;18.60;84.20
40257;DHT22;25977;45.462;9.210;2023-05-16T11:30:49;18.50;84.20
40257;DHT22;25977;45.462;9.210;2023-05-16T11:33:17;18.60;84.90
40257;DHT22;25977;45.462;9.210;2023-05-16T11:35:43;18.50;85.40
40257;DHT22;25977;45.462;9.210;2023-05-16T11:38:12;18.50;85.30
40257;DHT22;25977;45.462;9.210;2023-05-16T11:40:44;18.60;85.20
40257;DHT22;25977;45.462;9.210;2023-05-16T11:43:10;18.60;84.90
40257;DHT22;25977;45.462;9.210;2023-05-16T11:45:36;18.50;85.80
40257;DHT22;25977;45.462;9.210;2023-05-16T11:48:02;18.40;85.40
40257;DHT22;25977;45.462;9.210;2023-05-16T11:50:29;18.30;85.20
40257;DHT22;25977;45.462;9.210;2023-05-16T11:52:55;18.20;85.40
40257;DHT22;25977;45.462;9.210;2023-05-16T11:55:23;18.30;84.40
40257;DHT22;25977;45.462;9.210;2023-05-16T11:57:53;18.10;85.30
40257;DHT22;25977;45.462;9.210;2023-05-16T12:00:21;18.20;84.90
40257;DHT22;25977;45.462;9.210;2023-05-16T12:02:48;18.40;84.80
40257;DHT22;25977;45.462;9.210;2023-05-16T12:05:15;18.60;85.00
40257;DHT22;25977;45.462;9.210;2023-05-16T12:07:43;18.70;85.10
40257;DHT22;25977;45.462;9.210;2023-05-16T12:10:10;18.70;84.00
40257;DHT22;25977;45.462;9.210;2023-05-16T12:12:38;18.70;84.20
40257;DHT22;25977;45.462;9.210;2023-05-16T12:15:06;18.70;84.50
40257;DHT22;25977;45.462;9.210;2023-05-16T12:17:36;18.80;85.00
40257;DHT22;25977;45.462;9.210;2023-05-16T12:20:03;18.80;84.50
40257;DHT22;25977;45.462;9.210;2023-05-16T12:22:31;18.80;83.90
40257;DHT22;25977;45.462;9.210;2023-05-16T12:27:46;19.00;83.70
40257;DHT22;25977;45.462;9.210;2023-05-16T12:30:12;19.00;82.30
40257;DHT22;25977;45.462;9.210;2023-05-16T12:32:40;19.10;82.50
40257;DHT22;25977;45.462;9.210;2023-05-16T12:35:06;19.20;82.80
40257;DHT22;25977;45.462;9.210;2023-05-16T12:37:35;19.20;83.20
40257;DHT22;25977;45.462;9.210;2023-05-16T12:40:01;19.20;83.60
40257;DHT22;25977;45.462;9.210;2023-05-16T12:42:29;19.30;83.40
40257;DHT22;25977;45.462;9.210;2023-05-16T12:44:55;19.40;83.10
40257;DHT22;25977;45.462;9.210;2023-05-16T12:47:21;19.40;83.10
40257;DHT22;25977;45.462;9.210;2023-05-16T12:49:47;19.40;82.50
40257;DHT22;25977;45.462;9.210;2023-05-16T12:52:20;19.50;82.80
40257;DHT22;25977;45.462;9.210;2023-05-16T12:54:47;19.40;82.40
40257;DHT22;25977;45.462;9.210;2023-05-16T12:57:13;19.50;82.70
40257;DHT22;25977;45.462;9.210;2023-05-16T12:59:39;19.50;82.80
40257;DHT22;25977;45.462;9.210;2023-05-16T13:02:04;19.50;82.50
40257;DHT22;25977;45.462;9.210;2023-05-16T13:04:30;19.50;82.60
40257;DHT22;25977;45.462;9.210;2023-05-16T13:06:56;19.60;83.10
40257;DHT22;25977;45.462;9.210;2023-05-16T13:09:22;19.60;82.80
40257;DHT22;25977;45.462;9.210;2023-05-16T13:11:49;19.50;83.00
40257;DHT22;25977;45.462;9.210;2023-05-16T13:14:15;19.60;83.50
40257;DHT22;25977;45.462;9.210;2023-05-16T13:16:44;19.60;83.80
40257;DHT22;25977;45.462;9.210;2023-05-16T13:19:10;19.70;83.80
40257;DHT22;25977;45.462;9.210;2023-05-16T13:21:35;19.70;84.00
40257;DHT22;25977;45.462;9.210;2023-05-16T13:24:01;19.70;83.70
40257;DHT22;25977;45.462;9.210;2023-05-16T13:26:27;19.70;83.10
40257;DHT22;25977;45.462;9.210;2023-05-16T13:28:53;19.70;83.30
40257;DHT22;25977;45.462;9.210;2023-05-16T13:31:22;19.70;82.30
40257;DHT22;25977;45.462;9.210;2023-05-16T13:33:48;19.70;81.90
40257;DHT22;25977;45.462;9.210;2023-05-16T13:36:13;19.70;81.30
40257;DHT22;25977;45.462;9.210;2023-05-16T13:38:39;19.70;81.20
40257;DHT22;25977;45.462;9.210;2023-05-16T13:41:06;19.80;81.40
40257;DHT22;25977;45.462;9.210;2023-05-16T13:43:31;19.80;81.20
40257;DHT22;25977;45.462;9.210;2023-05-16T13:45:57;19.80;80.90
40257;DHT22;25977;45.462;9.210;2023-05-16T13:48:23;19.80;80.20
40257;DHT22;25977;45.462;9.210;2023-05-16T13:50:49;19.80;80.00
40257;DHT22;25977;45.462;9.210;2023-05-16T13:53:16;19.90;79.70
40257;DHT22;25977;45.462;9.210;2023-05-16T13:55:42;19.90;79.40
40257;DHT22;25977;45.462;9.210;2023-05-16T13:58:07;19.90;79.40
40257;DHT22;25977;45.462;9.210;2023-05-16T14:00:33;19.90;79.20
40257;DHT22;25977;45.462;9.210;2023-05-16T14:02:59;20.00;79.20
40257;DHT22;25977;45.462;9.210;2023-05-16T14:05:25;20.10;79.00
40257;DHT22;25977;45.462;9.210;2023-05-16T14:07:51;20.10;79.00
40257;DHT22;25977;45.462;9.210;2023-05-16T14:10:16;20.10;79.00
40257;DHT22;25977;45.462;9.210;2023-05-16T14:12:42;20.20;78.90
40257;DHT22;25977;45.462;9.210;2023-05-16T14:15:08;20.10;78.60
40257;DHT22;25977;45.462;9.210;2023-05-16T14:17:34;20.10;78.30
40257;DHT22;25977;45.462;9.210;2023-05-16T14:19:59;20.10;78.10
40257;DHT22;25977;45.462;9.210;2023-05-16T14:22:25;20.10;78.50
40257;DHT22;25977;45.462;9.210;2023-05-16T14:24:52;20.10;78.80
40257;DHT22;25977;45.462;9.210;2023-05-16T14:27:18;20.20;78.80
40257;DHT22;25977;45.462;9.210;2023-05-16T14:29:44;20.10;79.30
40257;DHT22;25977;45.462;9.210;2023-05-16T14:32:09;20.00;80.00
40257;DHT22;25977;45.462;9.210;2023-05-16T14:34:36;20.00;80.70
40257;DHT22;25977;45.462;9.210;2023-05-16T14:37:01;19.90;80.60
40257;DHT22;25977;45.462;9.210;2023-05-16T14:39:27;19.90;81.20
40257;DHT22;25977;45.462;9.210;2023-05-16T14:41:53;19.80;80.90
40257;DHT22;25977;45.462;9.210;2023-05-16T14:44:18;19.90;81.40
40257;DHT22;25977;45.462;9.210;2023-05-16T14:46:46;19.90;81.50
40257;DHT22;25977;45.462;9.210;2023-05-16T14:49:12;19.80;81.40
40257;DHT22;25977;45.462;9.210;2023-05-16T14:51:37;20.00;81.30
40257;DHT22;25977;45.462;9.210;2023-05-16T14:54:03;20.10;80.70
40257;DHT22;25977;45.462;9.210;2023-05-16T14:56:30;20.20;79.50
40257;DHT22;25977;45.462;9.210;2023-05-16T14:58:56;20.20;79.00
40257;DHT22;25977;45.462;9.210;2023-05-16T15:01:22;20.30;78.90
40257;DHT22;25977;45.462;9.210;2023-05-16T15:03:48;20.20;77.50
40257;DHT22;25977;45.462;9.210;2023-05-16T15:06:13;20.30;78.00
40257;DHT22;25977;45.462;9.210;2023-05-16T15:08:39;20.30;78.10
40257;DHT22;25977;45.462;9.210;2023-05-16T15:11:05;20.00;77.40
40257;DHT22;25977;45.462;9.210;2023-05-16T15:13:30;19.80;77.30
40257;DHT22;25977;45.462;9.210;2023-05-16T15:15:57;20.00;77.50
40257;DHT22;25977;45.462;9.210;2023-05-16T15:18:22;20.00;76.30
40257;DHT22;25977;45.462;9.210;2023-05-16T15:20:48;20.00;76.60
40257;DHT22;25977;45.462;9.210;2023-05-16T15:23:16;20.10;76.50
40257;DHT22;25977;45.462;9.210;2023-05-16T15:25:42;19.90;76.70
40257;DHT22;25977;45.462;9.210;2023-05-16T15:28:07;20.10;76.30
40257;DHT22;25977;45.462;9.210;2023-05-16T15:30:33;20.10;77.00
40257;DHT22;25977;45.462;9.210;2023-05-16T15:32:59;20.00;75.70
40257;DHT22;25977;45.462;9.210;2023-05-16T15:35:25;20.00;76.50
40257;DHT22;25977;45.462;9.210;2023-05-16T15:37:51;20.10;76.70
40257;DHT22;25977;45.462;9.210;2023-05-16T15:40:17;20.10;76.80
40257;DHT22;25977;45.462;9.210;2023-05-16T15:42:43;20.10;77.40